Airfield :
LOGIN :

Register | Disclaimer

   EN    FR    IT 

 










Legend :    VFR   Marginal VFR   IFR   Intensive IFR   Very Intensive IFR
Visi :
Ceiling :
>= 8 km
>= 3000ft
5 to 8 km
1000 to 3000 ft
1500m to 5 km
500 to 1000 ft
800 to 1500m
200 to 500 ft
< 800m
< 200 ft
Symbols :   Thunderstorms  Fog  Heavy snow  Heavy precipitations  Wind > 20 kt
SIGMETs :     Misc.  Thunderstorms  Icing  Turbulence  Mountain Waves  Volcanic Ashes







- Airport Elevation : 33 ft
- IATA code : MHZ


EGUN - RAF Mildenhall

CURRENT METAR :
  • 211341Z AUTO 22008KT 9999 SCT019 14/14 A3028 RMK AO2 LTG DSNT S-SW SLP257 $

EXPIRED METARs :
  • 211256Z AUTO 23009KT 9999 OVC018 13/13 A3027 RMK AO2 OVC V BKN SLP254 T01340134 $
  • 211206Z AUTO 24010KT 9999 OVC017 13/13 A3026 RMK AO2 SLP250 $
  • 211156Z AUTO 25013KT 9999 OVC016 13/13 A3026 RMK AO2 SLP250 T01290129 10129 20087 52020 $
  • 211056Z 24011KT 9999 OVC015 13/13 A3025 RMK AO2A SLP247 WND DATA ESTMD T01260126 .

TAF AMD TAF EGUN
Valid from the 21 at 13:00 until the 22 at 18:00 UTC


211344Z 2113/2218 24012KT 9999 SCT020 QNH3028INS
BECMG 2122/2123 20006KT 9999 FEW020 QNH3044INS
BECMG 2201/2202 21006KT 6000 BR FEW060 QNH3047INS
BECMG 2209/2210 18009KT 9999 NSW SKC QNH3056INS TX14/2113Z TN07/2205Z
No reported NOTAMs for that airfield.



MET'MAP, your aeronautical weather chart ! - Copyright ORBIFLY December 2007 - Disclaimer

ORBIFLY MET'MAP TEAM :

Programming & Development : Alexandra Zaïnal
Concept & Development : Baudouin d'Aumeries
Co-Development & Prog : Marc-Olivier Méhu
Technical & hardware support : Manuel Goepfert

Contact : metmap@orbifly.com




SOURCES & CREDITS :

   NOAA